Westwood, Michigan
Current Conditions -  °F | °C
As of 4:25 AM on Friday 19 Dec 2014 (Local Time) from KAZO Reporting Station
Overcast Overcast  
Wind Chill: 23°   Ceiling: 1400
Heat Index: 29°   Visibility: 9mi
Dew Point: 25°   Wind: 6mph
Humidity: 85%   Direction: 300°WNW
Pressure: 30.21"   Gusts: NA
Location:  42.3033°N, 85.7028°W
Report Text: KAZO 190925Z AUTO 30005KT 9SM SCT009 OVC014 M02/M04 A3021 RMK AO2 T10171039
Loading
Personal Weather Stations






























Interactive Weather Map New forecast layout! Learn more

10-Day Weather Forecast

Advertisements
Track Severe Weather on mobile